Latest Weather Observations for St George

IDQ60801

Issued at 1:32 pm EST Friday 27 March 2015 (issued every 30 minutes, with the page automatically refreshed every 10 minutes)

About weather observations | Map of weather stations | Latest weather observations for QLD | Other Formats
Station Details ID: 043109 Name: ST GEORGE AIRPORT Lat: -28.05 Lon: 148.59 Height: 198.5 m
Data from the previous 72 hours. | See also: Recent months at St George
Date/Time
EST
Temp
°C
App
Temp
°C
Dew
Point
Rel
Hum
%
Delta-T
°C
Wind Press
QNH
hPa
Press
MSL
hPa
Rain
since 9 am
mm
Dir
 
Spd
km/h
Gust
km/h
Spd
kts
Gust
kts
27/01:30pm 26.4 20.5 -0.6 17 12.5 SSW 20 44 11 24 1020.5 - 0.0
27/01:00pm 26.4 22.2 -0.6 17 12.5 SSW 11 26 6 14 1021.0 - 0.0
27/12:30pm 25.1 19.4 -0.9 18 11.9 S 19 30 10 16 1021.5 - 0.0
27/12:00pm 25.5 19.9 0.2 19 11.8 S 19 30 10 16 1022.3 1021.3 0.0
27/11:30am 25.0 19.4 1.2 21 11.3 S 20 33 11 18 1022.7 - 0.0
27/11:00am 23.9 18.3 0.9 22 10.8 SSE 20 28 11 15 1023.3 - 0.0
27/10:30am 22.8 17.2 1.2 24 10.1 SSE 20 32 11 17 1023.6 - 0.0
27/10:00am 22.0 16.0 1.1 25 9.7 S 22 30 12 16 1023.8 - 0.0
27/09:30am 20.9 14.8 0.2 25 9.3 S 22 28 12 15 1023.8 - 0.0
27/09:00am 20.1 13.1 -0.5 25 9.1 SSE 26 33 14 18 1023.7 1022.7 0.0
27/08:30am 19.4 12.8 -0.1 27 8.6 SSE 24 33 13 18 1023.6 - 0.0
27/08:00am 18.3 12.2 0.4 30 7.9 S 22 28 12 15 1023.5 - 0.0
27/07:30am 17.6 11.9 0.7 32 7.5 SSE 20 30 11 16 1023.0 - 0.0
27/07:00am 16.7 11.7 1.6 36 6.8 S 17 22 9 12 1022.7 - 0.0
27/06:30am 16.2 11.7 1.9 38 6.4 S 15 19 8 10 1022.3 - 0.0
27/06:00am 16.3 11.4 2.0 38 6.4 S 17 24 9 13 1021.5 1020.5 0.0
27/05:30am 16.7 11.8 2.0 37 6.6 S 17 22 9 12 1021.3 - 0.0
27/05:00am 17.1 12.2 1.9 36 6.9 S 17 24 9 13 1020.9 - 0.0
27/04:30am 17.4 12.4 1.4 34 7.2 S 17 22 9 12 1020.5 - 0.0
27/04:00am 17.8 12.8 1.3 33 7.4 S 17 24 9 13 1020.2 - 0.0
27/03:30am 18.0 12.9 0.6 31 7.7 S 17 22 9 12 1020.2 - 0.0
27/03:00am 18.3 12.7 0.0 29 8.0 S 19 24 10 13 1020.0 1019.0 0.0
27/02:30am 18.3 13.6 0.9 31 7.8 S 15 24 8 13 1020.0 - 0.0
27/02:00am 16.3 12.6 0.0 33 7.0 SSE 9 11 5 6 1020.1 - 0.0
27/01:30am 17.2 15.3 0.4 32 7.4 CALM 0 0 0 0 1020.4 - 0.0
27/01:00am 17.5 13.8 -0.2 30 7.7 S 9 9 5 5 1020.6 - 0.0
27/12:30am 18.4 14.6 -0.9 27 8.3 S 9 9 5 5 1020.7 - 0.0
27/12:00am 18.8 14.6 -0.6 27 8.4 SSW 11 11 6 6 1020.8 1019.8 0.0
 
Date/Time
EST
Temp
°C
App
Temp
°C
Dew
Point
Rel
Hum
%
Delta-T
°C
Wind Press
QNH
hPa
Press
MSL
hPa
Rain
since 9 am
mm
Dir
 
Spd
km/h
Gust
km/h
Spd
kts
Gust
kts
26/11:30pm 19.7 16.0 -0.3 26 8.8 S 9 11 5 6 1021.0 - 0.0
26/11:00pm 19.9 15.7 -0.7 25 9.1 SSW 11 13 6 7 1020.9 - 0.0
26/10:30pm 20.4 16.6 -0.8 24 9.3 SSW 9 13 5 7 1021.0 - 0.0
26/10:00pm 20.9 17.1 -1.0 23 9.7 SW 9 13 5 7 1020.9 - 0.0
26/09:30pm 21.9 17.3 -1.4 21 10.2 SW 13 15 7 8 1020.7 - 0.0
26/09:00pm 22.6 18.0 -0.8 21 10.5 SW 13 15 7 8 1020.4 1019.4 0.0
26/08:30pm 23.8 18.9 -0.5 20 11.1 SW 15 19 8 10 1020.3 - 0.0
26/08:00pm 24.3 19.9 0.6 21 11.1 SW 13 17 7 9 1019.9 - 0.0
26/07:30pm 24.3 20.5 1.9 23 10.7 SW 11 15 6 8 1019.4 - 0.0
26/07:00pm 25.2 20.9 1.3 21 11.4 SW 13 15 7 8 1019.0 - 0.0
26/06:30pm 26.5 22.3 1.7 20 12.0 SSW 13 17 7 9 1018.5 - 0.0
26/06:00pm 27.8 22.8 1.3 18 12.8 SW 17 22 9 12 1018.1 1017.1 0.0
26/05:30pm 29.0 23.6 1.5 17 13.5 SSW 19 26 10 14 1017.8 - 0.0
26/05:00pm 29.6 24.0 0.2 15 14.2 WSW 19 30 10 16 1017.7 - 0.0
26/04:30pm 29.8 24.3 0.4 15 14.2 SW 19 24 10 13 1017.5 - 0.0
26/04:00pm 29.8 24.3 0.4 15 14.2 SSW 19 28 10 15 1017.3 - 0.0
26/03:30pm 30.8 24.7 0.2 14 14.9 SW 22 33 12 18 1017.4 - 0.0
26/03:00pm 30.3 24.8 0.8 15 14.4 SW 19 28 10 15 1017.4 1016.4 0.0
26/02:30pm 30.1 24.8 -0.3 14 14.6 SW 17 30 9 16 1017.5 - 0.0
26/02:00pm 30.5 25.3 0.0 14 14.7 SSW 17 28 9 15 1017.9 - 0.0
26/01:30pm 29.2 23.8 -1.0 14 14.2 SW 17 28 9 15 1018.3 - 0.0
26/01:00pm 29.5 24.2 -0.8 14 14.3 SSW 17 30 9 16 1018.6 - 0.0
26/12:30pm 28.9 23.5 -1.2 14 14.1 SSW 17 24 9 13 1019.1 - 0.0
26/12:00pm 28.6 23.6 -1.5 14 14.0 SSW 15 22 8 12 1019.5 1018.5 0.0
26/11:30am 27.7 22.3 -1.3 15 13.4 WSW 17 22 9 12 1019.8 - 0.0
26/11:00am 26.9 21.5 -1.0 16 12.9 S 17 24 9 13 1020.2 - 0.0
26/10:30am 26.1 20.8 -0.8 17 12.4 S 17 22 9 12 1020.3 - 0.0
26/10:00am 24.9 20.1 0.4 20 11.5 SSW 15 19 8 10 1020.4 - 0.0
26/09:30am 23.4 18.6 0.5 22 10.6 S 15 20 8 11 1020.6 - 0.0
26/09:00am 22.8 18.4 0.6 23 10.2 SSW 13 17 7 9 1020.3 1019.3 0.0
26/08:30am 21.7 17.4 0.8 25 9.6 SSW 13 20 7 11 1020.2 - 0.0
26/08:00am 20.6 15.8 0.4 26 9.1 SSW 15 20 8 11 1019.7 - 0.0
26/07:30am 18.7 15.0 2.1 33 7.6 SW 11 15 6 8 1019.6 - 0.0
26/07:00am 18.0 13.8 1.9 34 7.3 SW 13 15 7 8 1019.0 - 0.0
26/06:30am 17.2 13.6 2.8 38 6.6 SW 11 17 6 9 1019.0 - 0.0
26/06:00am 16.0 12.9 3.8 44 5.7 WSW 9 9 5 5 1018.9 1017.9 0.0
26/05:30am 16.4 13.8 4.1 44 5.8 SW 7 9 4 5 1018.4 - 0.0
26/05:00am 17.2 14.6 4.2 42 6.2 SW 7 9 4 5 1017.9 - 0.0
26/04:30am 17.3 14.3 3.9 41 6.3 SW 9 9 5 5 1017.7 - 0.0
26/04:00am 17.5 14.8 3.8 40 6.5 SW 7 7 4 4 1017.5 - 0.0
26/03:30am 18.1 15.4 3.6 38 6.9 SSW 7 9 4 5 1017.4 - 0.0
26/03:00am 18.1 15.4 3.6 38 6.8 SSW 7 9 4 5 1017.1 1016.0 0.0
26/02:30am 19.6 16.8 2.9 33 7.9 S 7 9 4 5 1017.1 - 0.0
26/02:00am 20.0 16.8 2.8 32 8.1 S 9 11 5 6 1017.2 - 0.0
26/01:30am 20.7 17.1 3.0 31 8.4 S 11 13 6 7 1017.3 - 0.0
26/01:00am 21.5 17.9 3.2 30 8.8 SSE 11 13 6 7 1017.3 - 0.0
26/12:30am 22.2 18.7 3.3 29 9.2 SSE 11 13 6 7 1017.2 - 0.0
26/12:00am 22.8 19.3 3.4 28 9.4 S 11 15 6 8 1017.1 1016.0 0.0
 
Date/Time
EST
Temp
°C
App
Temp
°C
Dew
Point
Rel
Hum
%
Delta-T
°C
Wind Press
QNH
hPa
Press
MSL
hPa
Rain
since 9 am
mm
Dir
 
Spd
km/h
Gust
km/h
Spd
kts
Gust
kts
25/11:30pm 23.1 19.3 4.1 29 9.4 S 13 15 7 8 1016.9 - 0.0
25/11:00pm 22.7 19.9 5.2 32 8.8 S 9 15 5 8 1016.8 - 0.0
25/10:30pm 23.6 20.0 5.0 30 9.4 S 13 17 7 9 1016.8 - 0.0
25/10:00pm 24.1 21.2 6.4 32 9.2 S 11 13 6 7 1016.7 - 0.0
25/09:30pm 24.3 21.4 6.6 32 9.2 S 11 15 6 8 1016.6 - 0.0
25/09:00pm 24.8 22.0 7.0 32 9.4 S 11 15 6 8 1016.2 1015.2 0.0
25/08:30pm 26.0 22.9 7.1 30 10.1 SSW 13 19 7 10 1016.0 - 0.0
25/08:00pm 26.4 23.4 7.9 31 10.0 SSW 13 17 7 9 1015.8 - 0.0
25/07:30pm 26.8 24.7 8.3 31 10.1 S 9 11 5 6 1015.4 - 0.0
25/07:00pm 27.3 24.9 8.7 31 10.2 SSW 11 13 6 7 1014.9 - 0.0
25/06:30pm 28.4 25.9 8.1 28 11.1 SSW 11 13 6 7 1014.7 - 0.0
25/06:00pm 30.3 27.4 8.1 25 12.3 S 13 15 7 8 1014.3 1013.3 0.0
25/05:30pm 31.4 28.0 7.8 23 13.1 S 15 20 8 11 1014.1 - 0.0
25/05:00pm 32.0 29.1 8.3 23 13.3 SSW 13 20 7 11 1013.8 - 0.0
25/04:30pm 32.2 29.2 7.8 22 13.6 SSW 13 20 7 11 1013.5 - 0.0
25/04:00pm 32.5 29.7 8.7 23 13.4 S 13 20 7 11 1013.3 - 0.0
25/03:30pm 32.3 28.7 8.5 23 13.4 SSW 17 24 9 13 1013.6 - 0.0
25/03:00pm 32.3 30.1 9.2 24 13.1 S 11 20 6 11 1013.8 1012.8 0.0
25/02:30pm 32.2 29.5 9.1 24 13.1 SW 13 24 7 13 1013.8 - 0.0
25/02:00pm 31.6 29.0 9.2 25 12.7 SSW 13 22 7 12 1014.1 - 0.0
25/01:30pm 30.9 28.9 10.3 28 11.8 S 11 20 6 11 1014.4 - 0.0
25/01:00pm 30.1 28.2 10.6 30 11.2 S 11 19 6 10 1014.6 - 0.0
25/12:30pm 30.0 28.2 11.0 31 11.0 S 11 19 6 10 1014.9 - 0.0
25/12:00pm 28.8 27.4 10.9 33 10.3 SSE 9 15 5 8 1015.4 1014.4 0.0
25/11:30am 27.9 26.1 11.0 35 9.7 S 11 20 6 11 1015.8 - 0.0
25/11:00am 27.5 25.0 9.8 33 9.9 SSE 13 22 7 12 1016.3 - 0.0
25/10:30am 26.5 23.9 9.4 34 9.5 SE 13 20 7 11 1016.6 - 0.0
25/10:00am 24.8 21.6 8.3 35 8.9 SSE 15 20 8 11 1016.8 - 0.0
25/09:30am 24.8 21.4 9.1 37 8.6 SSE 17 22 9 12 1016.9 - 0.0
25/09:00am 23.6 20.2 7.7 36 8.4 S 15 20 8 11 1017.0 1015.9 0.0
25/08:30am 23.0 19.0 6.7 35 8.5 SSE 17 24 9 13 1016.8 - 0.0
25/08:00am 22.1 18.5 6.7 37 7.9 S 15 22 8 12 1016.7 - 0.0
25/07:30am 21.1 17.4 6.2 38 7.6 SSE 15 22 8 12 1016.1 - 0.0
25/07:00am 20.3 17.8 6.6 41 7.0 SSE 9 13 5 7 1015.9 - 0.0
25/06:30am 19.7 17.3 6.8 43 6.6 S 9 11 5 6 1015.4 - 0.0
25/06:00am 20.0 16.4 6.7 42 6.8 S 15 20 8 11 1014.8 1013.8 0.0
25/05:30am 20.4 16.9 7.4 43 6.7 S 15 24 8 13 1014.3 - 0.0
25/05:00am 21.0 17.5 8.9 46 6.5 S 17 24 9 13 1013.9 - 0.0
25/04:30am 21.7 18.1 9.9 47 6.4 S 19 26 10 14 1013.6 - 0.0
25/04:00am 21.8 19.5 11.8 53 5.6 SSE 15 20 8 11 1013.3 - 0.0
25/03:30am 23.1 19.7 12.4 51 6.1 S 22 35 12 19 1013.0 - 0.0
25/03:00am 23.3 21.4 12.9 52 6.0 S 15 20 8 11 1012.9 1011.9 0.0
25/02:30am 24.0 21.9 13.5 52 6.2 SSE 17 28 9 15 1012.8 - 0.0
25/02:00am 24.4 22.2 14.5 54 5.9 SSE 19 24 10 13 1012.8 - 0.0
25/01:30am 24.9 22.8 15.2 54 5.9 S 20 30 11 16 1012.7 - 0.0
25/01:00am 25.3 23.1 15.0 53 6.2 S 20 28 11 15 1012.8 - 0.0
25/12:30am 25.6 23.7 15.3 53 6.3 S 19 28 10 15 1012.8 - 0.0
25/12:00am 26.0 25.3 15.4 52 6.5 S 13 17 7 9 1013.0 1012.0 0.0
 
Date/Time
EST
Temp
°C
App
Temp
°C
Dew
Point
Rel
Hum
%
Delta-T
°C
Wind Press
QNH
hPa
Press
MSL
hPa
Rain
since 9 am
mm
Dir
 
Spd
km/h
Gust
km/h
Spd
kts
Gust
kts
24/11:30pm 26.0 25.0 14.5 49 6.9 S 13 17 7 9 1013.1 - 0.0
24/11:00pm 25.1 26.8 16.3 58 5.4 WSW 2 9 1 5 1013.0 - 0.0
24/10:30pm 25.1 26.7 16.8 60 5.2 WNW 4 7 2 4 1013.0 - 0.0
24/10:00pm 25.9 27.0 17.0 58 5.6 WNW 7 9 4 5 1013.1 - 0.0
24/09:30pm 26.5 27.4 16.7 55 6.1 WNW 7 13 4 7 1013.0 - 0.0
24/09:00pm 26.8 26.7 17.0 55 6.2 NW 13 17 7 9 1012.8 1011.8 0.0
24/08:30pm 27.0 28.2 16.9 54 6.3 W 6 9 3 5 1012.3 - 0.0
24/08:00pm 27.7 26.9 17.2 52 6.6 N 17 20 9 11 1011.8 - 0.0
24/07:30pm 28.4 29.1 18.8 56 6.2 N 13 19 7 10 1011.0 - 0.0
24/07:00pm 29.3 29.2 17.8 50 7.4 N 15 24 8 13 1010.2 - 0.0
24/06:30pm 30.8 29.9 16.8 43 8.9 N 17 24 9 13 1009.8 - 0.0
24/06:00pm 32.1 31.3 16.0 38 10.2 N 15 20 8 11 1009.2 1008.2 0.0
24/05:30pm 33.2 31.4 16.1 35 10.8 N 20 28 11 15 1008.9 - 0.0
24/05:00pm 33.2 32.4 15.2 33 11.3 N 13 17 7 9 1009.0 - 0.0
24/04:30pm 34.1 31.2 15.1 32 11.9 NNW 24 39 13 21 1009.1 - 0.0
24/04:00pm 35.0 33.9 15.3 30 12.4 NNW 15 30 8 16 1009.1 - 0.0
24/03:30pm 35.4 34.4 16.7 33 12.0 N 17 32 9 17 1009.4 - 0.0
24/03:00pm 34.7 33.1 16.5 33 11.7 NNW 20 32 11 17 1009.8 1008.8 0.0
24/02:30pm 35.3 33.9 17.0 33 11.8 N 20 32 11 17 1010.1 - 0.0
24/02:00pm 34.2 32.8 17.0 36 11.1 NNW 20 28 11 15 1010.6 - 0.0

Other Formats:

Comma delimited format used in spreadsheet applications
http://www.bom.gov.au/fwo/IDQ60801/IDQ60801.94517.axf

JavaScript Object Notation format (JSON) in row-major order
http://www.bom.gov.au/fwo/IDQ60801/IDQ60801.94517.json